KHSP/HSP METAR and TAF weather

Enter ICAO airport designator
Station Type Date Time Source
KHSP METAR 2020/09/23 18:55 UTC NOAA

KHSP 231855Z AUTO 29005KT 5SM HZ CLR 19/11 A3013 RMK AO2 T01910108


Station Type Date Time Source
KHSP Decoded METAR 2020/09/23 18:55 UTC NOAA

Hot Springs / Ingalls, VA, United States (KHSP) 37-57N 079-50W
Sep 23, 2020 - 02:55 PM EDT / 2020.09.23 1855 UTC
Wind: from the WNW (290 degrees) at 6 MPH (5 KT):0
Visibility: 5 mile(s):0
Sky conditions: clear
Weather: haze
Temperature: 66.4 F (19.1 C)
Dew Point: 51.4 F (10.8 C)
Relative Humidity: 58%
Pressure (altimeter): 30.13 in. Hg (1020 hPa)
ob: KHSP 231855Z AUTO 29005KT 5SM HZ CLR 19/11 A3013 RMK AO2 T01910108
cycle: 19

Station Type Date Time Source
KHSP TAF UTC NOAA

Error!

Example: see airport list